MFDO2: Hudson Lake

Data processed at Sun Apr 30 2017 23:02


All information presented herein is the property of the government of the United States of America and may be revised or deleted at any time without prior notice.
Dissemination of this information without the expressed written consent of the Public Affairs Office, Tulsa District U.S. Army Corps of Engineers is strictly prohibited.
These data are gathered electronically and, as presented, have not undergone any form of quality control. These data are not guaranteed to be valid or correct.
Go to home page.
Go to station list.
Go to station map.

Upstream stations:

Downstream station:
Previous Day
Next Day
Current Day
    
SHEF ID:       MFDO2     Lake Hudson near Locust Grove, O
STATION TYPE:  RESERVOIR

               PRECIP ELEVATION   STORAGE   TW-ELEV    INFLOW   RELEASE  AIR-TEMP  WIND-DIRWIND-SPEED REL-HUMID SOLAR-RAD   VOLTAGE  BAT-LOAD
                   in        ft     ac-ft        ft       cfs       cfs         F       deg       mph         %      W/m2      volt      volt
              Ccp-Rev   Ccp-Rev   Ccp-Rev   Ccp-Rev  Regi-Rev  Regi-Rev   Ccp-Rev   Ccp-Rev   Ccp-Rev   Ccp-Rev   Ccp-Rev   Ccp-Rev   Ccp-Rev
(US/Central)
04/30 00:00      0.09    627.34    303631    571.56    134975     34560     62.55     63.20      6.10    100.09      0.00     12.69     12.09
04/30 01:00      0.03    627.91    311662    571.57    130889     34560     63.61     57.50      6.20    100.09      0.00     12.69     12.17
04/30 02:00      0.01    628.47    319768    571.57    127590     34560     65.82    111.50      4.50     99.64      0.00     12.69     12.17
04/30 03:00      0.02    628.95    326752    571.66    126909     34560     59.07    300.80      3.20    100.08      0.00     12.69     12.17
04/30 04:00      0.01    629.38    333199    572.92    122523     44267     56.23    266.00      2.40    100.08      0.00     12.69     12.17
04/30 05:00      0.01    629.79    339369    573.78    123624     54157     55.40    225.70      2.10    100.08      0.00     12.68     12.17
04/30 06:00      0.01    630.05    343309    575.13    122956     62143     54.36    118.40      3.90    100.08      0.00     12.68     12.17
04/30 07:00      0.01    630.41    348918    576.12    127664     70288     54.43    295.90      3.20     99.90      0.00     12.68     12.17
04/30 08:00      0.01    630.65    352657    576.52    129151     70480     53.02    287.20      2.90     99.56      2.20     12.68     12.09
04/30 09:00      0.00    630.97    357643    577.85    134099     85484     52.61    191.50      3.70     90.35     45.10     12.72     12.09
04/30 10:00      0.01    631.23    361820    578.50    134600     85712     53.33    191.90      4.30     84.61     96.10     12.85     12.17
04/30 11:00      0.00    631.41    364723    580.00    141975     99418     54.57    201.10      4.50     74.81    242.40     13.26     12.41
04/30 12:00      0.01    631.62    368111    580.49    141794     99673     54.48    279.80      4.10     65.61    371.30     13.41     12.81
04/30 13:00      0.00    631.84    371659    581.73    146925    109661     53.73    266.70      4.80     60.88    445.00     14.25     12.89
04/30 14:00      0.00    632.02    374574    581.98    151657    109638     54.73    231.90      5.00     53.79    663.60     13.34     13.29
04/30 15:00      0.00    632.23    378079    582.88    156049    119505     53.17    216.00      5.10     61.76    331.30     13.67     12.81
04/30 16:00      0.00    632.42    381250    583.40    156157    119839     54.73    188.30      5.50     52.85    152.70     13.17     13.13
04/30 17:00      0.00    632.63    384755    583.39    159068    120209     54.52    190.80      4.00     52.44     42.50     13.03     12.73
04/30 18:00      0.00    632.79    387425    583.50    157218    120825     53.73    291.50      3.80     57.41     49.30     12.98     12.57
04/30 19:00      0.00    632.98    390596    583.86    159131    121089     52.86    319.50      3.70     59.97     55.00     12.97     12.57
04/30 20:00      0.00    633.13    393174    583.86    159441    121476     53.04    299.90      4.20     58.50     15.00     12.91     12.49
04/30 21:00      0.00    633.35    396971    584.08    162368    121828     51.71    300.80      4.90     62.62      0.00     12.88     12.41
04/30 22:00      0.00    633.55    400423    583.98    162589    122400     50.74    321.20      3.60     68.34      0.00     12.86     12.41
04/30 23:00      0.00    633.66    402322    584.10      ----      ----     48.47    304.40      4.10     83.36      0.00     12.84     12.33